Time;durP1;ratioP1;P1;durP2;ratioP2;P2;SDS_P1;SDS_P2;PMS_P1;PMS_P2;Temp;Humidity;BMP_temperature;BMP_pressure;BME280_temperature;BME280_humidity;BME280_pressure;Samples;Min_cycle;Max_cycle;Signal;HPM_P1;HPM_P2
2022/07/12 00:01:23;;;;;;;1.33;1.20;;;23.00;56.40;;;;;;6113135;28;81211;-64
2022/07/12 00:04:23;;;;;;;0.80;0.80;;;23.10;56.40;;;;;;6106705;28;80453;-65
2022/07/12 00:07:23;;;;;;;1.30;1.20;;;23.00;56.50;;;;;;6111227;28;80108;-65
2022/07/12 00:10:24;;;;;;;1.45;0.90;;;23.00;56.60;;;;;;6110989;28;80399;-65
2022/07/12 00:13:24;;;;;;;4.90;1.70;;;23.00;56.50;;;;;;6110632;28;80656;-65
2022/07/12 00:16:25;;;;;;;1.08;1.05;;;23.00;56.60;;;;;;6110592;28;80417;-65
2022/07/12 00:19:25;;;;;;;1.38;1.00;;;23.00;57.30;;;;;;6110483;28;80549;-64
2022/07/12 00:22:28;;;;;;;2.20;1.00;;;23.00;56.60;;;;;;6105756;28;80427;-65
2022/07/12 00:25:28;;;;;;;2.47;0.90;;;23.00;56.60;;;;;;6110757;28;80487;-65
2022/07/12 00:28:30;;;;;;;1.33;1.23;;;23.00;56.60;;;;;;6110296;28;80162;-65
2022/07/12 00:31:30;;;;;;;2.25;1.20;;;23.00;56.70;;;;;;6110455;28;80567;-66
2022/07/12 00:34:31;;;;;;;1.73;1.10;;;23.00;56.60;;;;;;6120619;28;80889;-66
2022/07/12 00:37:31;;;;;;;2.97;1.40;;;23.00;56.70;;;;;;6110685;28;80457;-64
2022/07/12 00:40:32;;;;;;;1.90;1.10;;;23.00;56.70;;;;;;6110351;28;80531;-65
2022/07/12 00:43:32;;;;;;;4.40;1.60;;;23.00;56.70;;;;;;6117046;28;81820;-64
2022/07/12 00:46:32;;;;;;;2.00;1.00;;;22.90;56.70;;;;;;6110352;28;80992;-63
2022/07/12 00:49:33;;;;;;;1.63;1.25;;;22.90;56.80;;;;;;6112958;28;80427;-63
2022/07/12 00:52:33;;;;;;;2.10;1.30;;;23.00;56.80;;;;;;6114160;28;80581;-62
2022/07/12 00:55:34;;;;;;;2.80;1.17;;;23.00;57.50;;;;;;6114222;28;80410;-63
2022/07/12 00:58:34;;;;;;;1.20;1.10;;;22.90;56.80;;;;;;6112168;28;80101;-64
2022/07/12 01:01:35;;;;;;;1.48;1.23;;;23.00;56.80;;;;;;6117464;28;83705;-64
2022/07/12 01:04:35;;;;;;;2.28;1.10;;;23.00;56.90;;;;;;6113316;28;81477;-64
2022/07/12 01:07:36;;;;;;;3.53;1.48;;;23.00;57.00;;;;;;6113327;28;81822;-64
2022/07/12 01:10:36;;;;;;;1.75;1.27;;;23.00;56.90;;;;;;6113858;28;81533;-64
2022/07/12 01:13:37;;;;;;;2.35;0.98;;;23.00;57.00;;;;;;6114117;28;80019;-63
2022/07/12 01:16:38;;;;;;;1.80;1.27;;;23.00;57.00;;;;;;6110681;28;80658;-63
2022/07/12 01:19:38;;;;;;;6.63;1.55;;;23.00;57.00;;;;;;6110852;28;80419;-63
2022/07/12 01:22:38;;;;;;;1.40;1.30;;;22.90;57.00;;;;;;6113840;28;81222;-65
2022/07/12 01:25:39;;;;;;;2.33;1.20;;;22.90;57.10;;;;;;6112563;28;80844;-65
2022/07/12 01:28:39;;;;;;;1.30;1.17;;;22.90;57.00;;;;;;6111868;28;81657;-64
2022/07/12 01:31:40;;;;;;;3.15;1.40;;;22.90;57.10;;;;;;6112091;28;80283;-65
2022/07/12 01:34:40;;;;;;;2.30;1.35;;;22.90;57.10;;;;;;6110446;28;80441;-65
2022/07/12 01:37:41;;;;;;;2.33;1.35;;;22.90;57.10;;;;;;6112642;28;80406;-65
2022/07/12 01:40:41;;;;;;;2.28;1.30;;;23.00;57.10;;;;;;6112148;28;80341;-65
2022/07/12 01:43:42;;;;;;;3.47;1.42;;;22.90;57.00;;;;;;6111327;28;80533;-64
2022/07/12 01:46:42;;;;;;;1.85;1.30;;;23.00;57.00;;;;;;6111901;28;81982;-64
2022/07/12 01:49:43;;;;;;;1.80;1.20;;;23.00;57.00;;;;;;6113917;28;80746;-64
2022/07/12 01:52:43;;;;;;;1.55;1.20;;;22.90;57.00;;;;;;6117356;28;80262;-64
2022/07/12 01:55:44;;;;;;;1.58;1.10;;;22.90;57.00;;;;;;6122664;28;81352;-64
2022/07/12 01:58:44;;;;;;;3.17;1.30;;;22.90;57.00;;;;;;6126562;28;81087;-64
2022/07/12 02:01:45;;;;;;;3.55;1.30;;;23.00;57.10;;;;;;6106990;28;80845;-63
2022/07/12 02:04:45;;;;;;;2.00;1.42;;;22.90;57.10;;;;;;6103955;28;80249;-63
2022/07/12 02:07:46;;;;;;;2.67;1.45;;;22.90;57.10;;;;;;6113182;28;80741;-63
2022/07/12 02:10:46;;;;;;;1.45;1.00;;;23.00;57.20;;;;;;6112602;28;81459;-63
2022/07/12 02:13:47;;;;;;;2.20;1.42;;;22.90;57.20;;;;;;6112978;28;80294;-64
2022/07/12 02:16:47;;;;;;;1.88;1.20;;;22.90;57.00;;;;;;6112087;28;81324;-63
2022/07/12 02:19:48;;;;;;;2.53;1.20;;;22.90;57.10;;;;;;6114200;28;80600;-62
2022/07/12 02:22:48;;;;;;;1.40;1.08;;;22.90;57.10;;;;;;6113402;28;80571;-63
2022/07/12 02:25:49;;;;;;;2.03;1.30;;;22.90;57.10;;;;;;6113017;28;81694;-63
2022/07/12 02:28:49;;;;;;;2.08;1.38;;;23.00;57.20;;;;;;6112916;28;81139;-63
2022/07/12 02:31:50;;;;;;;1.88;1.23;;;23.00;57.30;;;;;;6112774;28;80467;-63
2022/07/12 02:34:51;;;;;;;3.83;1.45;;;23.00;58.00;;;;;;6112614;28;80926;-63
2022/07/12 02:37:51;;;;;;;2.47;1.60;;;23.00;57.40;;;;;;6112450;28;80744;-63
2022/07/12 02:40:54;;;;;;;2.20;1.50;;;23.00;57.50;;;;;;6110103;28;80542;-63
2022/07/12 02:43:55;;;;;;;4.10;1.55;;;23.00;57.40;;;;;;6111735;28;81348;-63
2022/07/12 02:46:55;;;;;;;3.25;1.40;;;22.90;57.30;;;;;;6112623;28;80261;-64
2022/07/12 02:49:56;;;;;;;3.13;1.38;;;22.90;57.30;;;;;;6114605;28;80592;-64
2022/07/12 02:52:56;;;;;;;3.13;1.20;;;22.90;57.30;;;;;;6113991;28;80818;-64
2022/07/12 02:55:57;;;;;;;2.13;1.35;;;22.90;57.40;;;;;;6103115;28;80320;-64
2022/07/12 02:58:57;;;;;;;1.63;1.27;;;22.90;57.40;;;;;;6112245;28;80405;-63
2022/07/12 03:01:58;;;;;;;1.73;1.42;;;22.90;57.50;;;;;;6112668;28;81217;-64
2022/07/12 03:04:58;;;;;;;2.03;1.27;;;22.90;57.40;;;;;;6113631;28;81451;-64
2022/07/12 03:07:59;;;;;;;1.63;1.45;;;22.90;57.50;;;;;;6108991;28;80851;-63
2022/07/12 03:10:59;;;;;;;2.53;1.30;;;22.90;57.50;;;;;;6111419;28;80567;-63
2022/07/12 03:14:00;;;;;;;2.13;1.25;;;22.90;57.50;;;;;;6110956;28;81852;-65
2022/07/12 03:17:01;;;;;;;2.10;1.50;;;22.90;57.50;;;;;;6111609;28;80677;-64
2022/07/12 03:20:02;;;;;;;2.42;1.40;;;22.90;57.50;;;;;;6112082;28;80758;-64
2022/07/12 03:23:02;;;;;;;2.25;1.48;;;22.90;57.50;;;;;;6111512;28;81590;-64
2022/07/12 03:26:03;;;;;;;3.85;1.50;;;23.00;57.70;;;;;;6111987;28;87260;-65
2022/07/12 03:29:04;;;;;;;2.38;1.20;;;22.90;57.60;;;;;;6117200;28;81367;-65
2022/07/12 03:32:05;;;;;;;1.33;1.23;;;22.90;57.70;;;;;;6122423;28;81617;-64
2022/07/12 03:35:06;;;;;;;1.88;1.40;;;22.90;57.70;;;;;;6114628;28;80396;-64
2022/07/12 03:38:06;;;;;;;6.63;1.65;;;22.90;57.60;;;;;;6127745;28;80881;-64
2022/07/12 03:41:07;;;;;;;2.22;1.50;;;22.90;57.60;;;;;;6122240;28;80283;-64
2022/07/12 03:44:07;;;;;;;1.75;1.35;;;23.00;57.70;;;;;;6113215;28;81154;-64
2022/07/12 03:47:08;;;;;;;1.35;1.20;;;22.90;57.60;;;;;;6111099;28;80451;-63
2022/07/12 03:50:08;;;;;;;3.55;1.50;;;22.90;57.80;;;;;;6111991;28;80462;-72
2022/07/12 03:53:09;;;;;;;2.17;1.60;;;23.00;57.80;;;;;;6111393;28;80031;-70
2022/07/12 03:57:13;;;;;;;2.47;1.35;;;22.90;57.70;;;;;;6108634;28;82928;-72
2022/07/12 03:59:30;;;;;;;4.20;1.67;;;23.00;57.80;;;;;;6109334;28;80924;-63
2022/07/12 04:02:30;;;;;;;2.35;1.60;;;22.90;57.70;;;;;;6109308;28;81601;-69
2022/07/12 04:05:31;;;;;;;2.08;1.23;;;22.90;57.90;;;;;;6091134;28;83740;-63
2022/07/12 04:08:31;;;;;;;3.15;1.30;;;22.90;57.80;;;;;;6109426;28;81668;-63
2022/07/12 04:11:32;;;;;;;3.85;1.58;;;22.90;57.70;;;;;;6110494;28;80360;-61
2022/07/12 04:14:33;;;;;;;1.27;1.17;;;22.90;57.70;;;;;;6098688;28;80687;-62
2022/07/12 04:17:33;;;;;;;6.28;2.05;;;23.00;58.00;;;;;;6101724;28;81300;-62
2022/07/12 04:20:34;;;;;;;2.60;1.60;;;22.90;58.10;;;;;;6107918;28;80378;-61
2022/07/12 04:23:34;;;;;;;2.25;1.10;;;22.90;58.30;;;;;;6110035;28;80417;-63
2022/07/12 04:26:35;;;;;;;2.15;1.50;;;23.00;58.40;;;;;;6112967;28;83464;-61
2022/07/12 04:29:35;;;;;;;6.63;1.70;;;23.00;58.30;;;;;;6108531;28;80326;-61
2022/07/12 04:32:36;;;;;;;3.58;1.55;;;23.00;58.60;;;;;;6104898;28;82283;-62
2022/07/12 04:35:37;;;;;;;3.08;1.60;;;23.00;58.60;;;;;;6106078;28;82037;-61
2022/07/12 04:38:37;;;;;;;1.98;1.40;;;23.00;58.50;;;;;;6098187;28;81678;-62
2022/07/12 04:41:37;;;;;;;5.60;1.88;;;23.00;58.70;;;;;;6108685;28;80443;-74
2022/07/12 04:44:38;;;;;;;3.05;1.80;;;23.00;58.90;;;;;;6107389;28;80878;-67
2022/07/12 04:47:38;;;;;;;17.05;1.60;;;23.10;58.80;;;;;;6104405;28;85014;-62
2022/07/12 04:50:39;;;;;;;4.40;2.00;;;23.10;58.80;;;;;;6112445;28;81345;-61
2022/07/12 04:53:39;;;;;;;4.22;1.60;;;23.00;58.80;;;;;;6113878;28;80830;-70
2022/07/12 04:56:40;;;;;;;3.22;1.60;;;23.00;58.80;;;;;;6113948;28;81855;-67
2022/07/12 04:59:41;;;;;;;4.47;1.67;;;23.00;58.80;;;;;;6109464;28;81137;-64
2022/07/12 05:02:41;;;;;;;8.43;1.80;;;23.00;58.80;;;;;;6113949;28;80674;-60
2022/07/12 05:05:42;;;;;;;1.95;1.35;;;23.10;59.10;;;;;;6113039;28;81902;-62
2022/07/12 05:08:42;;;;;;;4.47;1.90;;;23.10;59.30;;;;;;6110029;28;82080;-61
2022/07/12 05:11:43;;;;;;;4.53;1.40;;;23.10;59.30;;;;;;6099947;28;81510;-60
2022/07/12 05:14:43;;;;;;;6.03;1.98;;;23.10;59.10;;;;;;6106740;28;81351;-62
2022/07/12 05:17:43;;;;;;;3.65;1.80;;;23.10;59.20;;;;;;6109312;28;80643;-61
2022/07/12 05:20:44;;;;;;;6.88;2.05;;;23.10;59.20;;;;;;6102346;28;80870;-62
2022/07/12 05:23:44;;;;;;;2.20;1.40;;;23.10;59.30;;;;;;6100991;28;80755;-61
2022/07/12 05:26:45;;;;;;;4.45;2.38;;;23.10;59.30;;;;;;6104273;28;80119;-62
2022/07/12 05:29:45;;;;;;;5.95;2.08;;;23.10;59.40;;;;;;6110889;28;80371;-62
2022/07/12 05:32:46;;;;;;;3.65;1.83;;;23.10;59.10;;;;;;6114369;28;81519;-69
2022/07/12 05:35:46;;;;;;;4.10;2.10;;;23.10;58.90;;;;;;6105876;28;80294;-76
2022/07/12 05:38:47;;;;;;;3.42;1.80;;;23.10;59.20;;;;;;6112583;28;80584;-71
2022/07/12 05:41:47;;;;;;;3.72;1.75;;;23.10;59.00;;;;;;6118579;28;80676;-78
2022/07/12 05:44:48;;;;;;;2.60;1.80;;;23.10;59.10;;;;;;6111864;28;81006;-63
2022/07/12 05:47:48;;;;;;;6.55;1.75;;;23.10;59.10;;;;;;6096575;28;81312;-65
2022/07/12 05:50:49;;;;;;;4.65;2.15;;;23.10;59.20;;;;;;6111147;28;82362;-67
2022/07/12 05:53:50;;;;;;;6.07;1.80;;;23.10;59.00;;;;;;6110065;28;80869;-64
2022/07/12 05:56:50;;;;;;;5.07;2.13;;;23.10;58.90;;;;;;6111620;28;81558;-63
2022/07/12 05:59:51;;;;;;;4.30;2.05;;;23.10;58.90;;;;;;6111543;28;81749;-63
2022/07/12 06:02:51;;;;;;;4.43;2.30;;;23.10;58.80;;;;;;6111765;28;81482;-64
2022/07/12 06:05:52;;;;;;;1.83;1.40;;;23.10;58.70;;;;;;6111087;28;80438;-64
2022/07/12 06:08:52;;;;;;;4.60;1.85;;;23.10;58.60;;;;;;6112179;28;80462;-63
2022/07/12 06:11:53;;;;;;;3.70;1.83;;;23.10;58.60;;;;;;6109468;28;80844;-63
2022/07/12 06:14:54;;;;;;;3.72;1.88;;;23.10;58.60;;;;;;6107392;28;88069;-63
2022/07/12 06:17:54;;;;;;;3.95;2.28;;;23.00;58.60;;;;;;6105712;28;83538;-63
2022/07/12 06:20:55;;;;;;;2.70;1.90;;;23.10;58.50;;;;;;6104481;28;84508;-64
2022/07/12 06:23:55;;;;;;;2.53;1.70;;;23.10;58.50;;;;;;6108113;28;80328;-63
2022/07/12 06:26:56;;;;;;;2.35;1.95;;;23.00;58.50;;;;;;6119775;28;80458;-64
2022/07/12 06:29:56;;;;;;;3.38;1.77;;;23.00;58.60;;;;;;6103731;28;81841;-64
2022/07/12 06:32:57;;;;;;;6.35;1.90;;;23.00;58.60;;;;;;6114836;28;80582;-64
2022/07/12 06:35:57;;;;;;;5.68;1.90;;;23.00;58.50;;;;;;6098963;28;80509;-65
2022/07/12 06:38:58;;;;;;;3.03;1.80;;;23.00;58.80;;;;;;6102699;28;81407;-64
2022/07/12 06:41:58;;;;;;;6.18;2.47;;;23.00;58.60;;;;;;6100017;28;80514;-64
2022/07/12 06:44:59;;;;;;;4.00;1.85;;;23.00;58.50;;;;;;6098093;28;80967;-65
2022/07/12 06:47:59;;;;;;;2.75;1.83;;;23.00;58.50;;;;;;6107465;28;88036;-64
2022/07/12 06:50:59;;;;;;;3.85;2.30;;;23.00;58.50;;;;;;6101298;28;82141;-64
2022/07/12 06:54:00;;;;;;;10.82;2.22;;;23.00;58.50;;;;;;6097046;28;80545;-64
2022/07/12 06:57:00;;;;;;;4.82;2.53;;;23.00;58.40;;;;;;6101697;28;80803;-63
2022/07/12 07:00:02;;;;;;;7.00;2.42;;;23.00;58.30;;;;;;6106935;28;81719;-63
2022/07/12 07:03:02;;;;;;;2.92;2.10;;;23.00;58.40;;;;;;6106130;28;81211;-63
2022/07/12 07:06:03;;;;;;;2.85;2.08;;;23.00;58.40;;;;;;6106106;28;81060;-63
2022/07/12 07:09:07;;;;;;;4.10;2.47;;;23.00;59.00;;;;;;6107085;28;80718;-64
2022/07/12 07:12:07;;;;;;;4.70;2.08;;;23.00;58.30;;;;;;6105370;28;81666;-63
2022/07/12 07:15:08;;;;;;;4.80;2.10;;;23.00;58.50;;;;;;6100392;28;81272;-63
2022/07/12 07:18:08;;;;;;;5.65;2.35;;;23.00;58.40;;;;;;6106210;28;80603;-64
2022/07/12 07:21:09;;;;;;;6.43;2.20;;;23.00;58.50;;;;;;6111693;28;80283;-63
2022/07/12 07:24:11;;;;;;;3.03;1.67;;;22.90;58.60;;;;;;6104709;28;81485;-63
2022/07/12 07:27:11;;;;;;;2.58;1.80;;;23.00;58.60;;;;;;6120932;28;81690;-64
2022/07/12 07:33:31;;;;;;;4.50;2.13;;;23.00;58.60;;;;;;6100308;28;80793;-63
2022/07/12 07:36:31;;;;;;;4.55;2.05;;;23.00;58.80;;;;;;6104232;28;80346;-63
2022/07/12 07:39:32;;;;;;;5.88;2.05;;;23.00;58.80;;;;;;6106638;28;81018;-62
2022/07/12 07:42:32;;;;;;;5.53;1.80;;;23.00;58.60;;;;;;6102628;28;81070;-64
2022/07/12 07:45:33;;;;;;;4.68;1.65;;;23.00;58.70;;;;;;6106336;28;83639;-67
2022/07/12 07:48:33;;;;;;;4.53;1.95;;;23.00;58.80;;;;;;6109381;28;80688;-67
2022/07/12 07:51:34;;;;;;;3.55;1.83;;;23.00;58.70;;;;;;6107678;28;80409;-62
2022/07/12 07:54:34;;;;;;;3.40;2.25;;;23.00;58.90;;;;;;6107088;28;81663;-62
2022/07/12 07:57:35;;;;;;;4.47;2.10;;;23.00;59.40;;;;;;6108179;28;81848;-68
2022/07/12 08:00:35;;;;;;;7.60;2.40;;;22.90;59.70;;;;;;6113124;28;81535;-63
2022/07/12 08:03:36;;;;;;;6.07;2.13;;;22.70;59.90;;;;;;6111127;28;82890;-67
2022/07/12 08:06:36;;;;;;;6.32;2.72;;;22.70;60.20;;;;;;6103700;28;81365;-63
2022/07/12 08:09:37;;;;;;;6.40;1.90;;;22.70;60.20;;;;;;6108937;28;80331;-62
2022/07/12 08:12:37;;;;;;;3.22;1.83;;;22.60;60.20;;;;;;6099920;28;80926;-62
2022/07/12 08:15:37;;;;;;;2.85;2.03;;;22.30;61.20;;;;;;6115205;28;81037;-61
2022/07/12 08:18:38;;;;;;;9.57;2.95;;;22.40;61.20;;;;;;6107383;28;81279;-63
2022/07/12 08:21:38;;;;;;;5.47;2.80;;;22.20;61.30;;;;;;6103327;28;80799;-72
2022/07/12 08:24:39;;;;;;;6.60;2.20;;;22.40;61.10;;;;;;6115662;28;80137;-74
2022/07/12 08:27:39;;;;;;;4.72;2.35;;;22.50;60.90;;;;;;6114974;28;80825;-66
2022/07/12 08:30:40;;;;;;;5.63;2.33;;;22.60;60.90;;;;;;6098011;28;80462;-63
2022/07/12 08:33:41;;;;;;;5.65;2.67;;;22.60;60.90;;;;;;6095513;28;81504;-63
2022/07/12 08:36:41;;;;;;;7.55;2.22;;;22.50;60.80;;;;;;6107264;28;80382;-63
2022/07/12 08:39:42;;;;;;;6.40;2.03;;;22.50;61.60;;;;;;6114216;28;80575;-63
2022/07/12 08:42:42;;;;;;;4.70;2.22;;;22.60;61.10;;;;;;6099421;28;81406;-64
2022/07/12 08:45:43;;;;;;;3.78;1.70;;;22.60;61.10;;;;;;6113389;28;80316;-64
2022/07/12 08:48:44;;;;;;;4.53;1.65;;;22.50;60.80;;;;;;6107637;28;80695;-63
2022/07/12 08:51:44;;;;;;;3.60;1.67;;;22.60;60.80;;;;;;6112539;28;80884;-63
2022/07/12 08:54:45;;;;;;;5.03;1.85;;;22.50;60.10;;;;;;6114871;28;80633;-71
2022/07/12 08:57:45;;;;;;;4.43;1.98;;;22.50;60.30;;;;;;6106834;28;80416;-63
2022/07/12 09:00:45;;;;;;;6.88;1.67;;;22.50;60.10;;;;;;6103778;28;80740;-63
2022/07/12 09:03:46;;;;;;;3.08;1.98;;;22.60;59.90;;;;;;6113997;28;80282;-63
2022/07/12 09:06:47;;;;;;;3.10;1.50;;;22.70;60.10;;;;;;6101258;28;80814;-63
2022/07/12 09:09:47;;;;;;;3.38;1.38;;;22.80;60.00;;;;;;6112887;28;80383;-65
2022/07/12 09:12:47;;;;;;;2.13;1.50;;;22.90;59.00;;;;;;6114044;28;80450;-63
2022/07/12 09:15:48;;;;;;;5.35;1.70;;;22.90;58.60;;;;;;6126163;28;81443;-63
2022/07/12 09:18:48;;;;;;;8.43;2.03;;;22.90;57.60;;;;;;6114659;28;80454;-63
2022/07/12 09:21:49;;;;;;;2.90;1.52;;;23.00;58.10;;;;;;6114876;28;81637;-65
2022/07/12 09:24:50;;;;;;;5.22;2.08;;;23.00;57.60;;;;;;6115310;28;81198;-72
2022/07/12 09:27:50;;;;;;;2.75;1.70;;;22.90;57.40;;;;;;6112081;28;81697;-64
2022/07/12 09:30:52;;;;;;;3.95;1.75;;;22.80;57.70;;;;;;6108132;28;80908;-65
2022/07/12 09:37:12;;;;;;;4.35;1.77;;;22.70;58.40;;;;;;6108050;28;80406;-65
2022/07/12 09:40:12;;;;;;;8.25;1.50;;;22.70;59.00;;;;;;6111571;28;80554;-64
2022/07/12 09:43:13;;;;;;;3.88;1.98;;;22.70;59.00;;;;;;6094016;28;80708;-64
2022/07/12 09:46:13;;;;;;;3.58;1.88;;;22.50;59.80;;;;;;6113117;28;80379;-63
2022/07/12 09:49:14;;;;;;;6.28;1.83;;;22.60;60.10;;;;;;6112800;28;80427;-63
2022/07/12 09:52:14;;;;;;;5.82;1.83;;;22.60;60.10;;;;;;6107036;28;80613;-62
2022/07/12 09:55:14;;;;;;;2.92;1.67;;;22.60;60.10;;;;;;6101573;28;80616;-64
2022/07/12 09:58:15;;;;;;;2.40;1.42;;;22.70;60.40;;;;;;6099566;28;80619;-63
2022/07/12 10:01:16;;;;;;;3.13;1.13;;;22.60;60.40;;;;;;6099973;28;80601;-62
2022/07/12 10:04:16;;;;;;;1.90;1.13;;;22.70;60.50;;;;;;6107141;28;81001;-66
2022/07/12 10:07:17;;;;;;;4.35;2.20;;;22.70;61.20;;;;;;6108253;28;81155;-62
2022/07/12 10:10:17;;;;;;;3.80;2.42;;;22.40;62.70;;;;;;6115083;28;83458;-65
2022/07/12 10:13:18;;;;;;;10.70;2.00;;;22.40;63.10;;;;;;6100968;28;80802;-64
2022/07/12 10:16:18;;;;;;;6.65;2.08;;;22.30;63.70;;;;;;6099883;28;80391;-64
2022/07/12 10:19:18;;;;;;;5.80;1.70;;;22.30;64.30;;;;;;6105170;28;81804;-65
2022/07/12 10:22:20;;;;;;;3.10;1.25;;;22.40;64.00;;;;;;6101260;28;80741;-65
2022/07/12 10:25:20;;;;;;;2.80;1.20;;;22.30;64.90;;;;;;6098974;28;80519;-66
2022/07/12 10:28:21;;;;;;;6.57;3.10;;;22.30;65.00;;;;;;6100515;28;80484;-65
2022/07/12 10:31:21;;;;;;;3.25;2.08;;;22.30;66.00;;;;;;6104284;28;80866;-65
2022/07/12 10:34:22;;;;;;;1.75;1.63;;;22.50;65.40;;;;;;6107649;28;80504;-65
2022/07/12 10:37:22;;;;;;;3.75;2.17;;;22.50;65.50;;;;;;6091753;28;80663;-63
2022/07/12 10:40:23;;;;;;;7.07;1.90;;;22.70;65.60;;;;;;6096614;28;80328;-65
2022/07/12 10:44:04;;;;;;;3.15;2.08;;;22.60;66.30;;;;;;6100345;28;80664;-65
2022/07/12 10:46:44;;;;;;;7.60;2.20;;;22.50;66.60;;;;;;6099282;28;80377;-66
2022/07/12 10:49:45;;;;;;;6.15;2.10;;;22.60;66.50;;;;;;6100407;28;80718;-66
2022/07/12 10:52:46;;;;;;;5.53;2.15;;;22.50;66.10;;;;;;6101306;28;80339;-65
2022/07/12 10:55:46;;;;;;;7.32;2.83;;;22.60;65.50;;;;;;6094988;28;80760;-64
2022/07/12 10:58:47;;;;;;;4.25;2.05;;;22.70;65.30;;;;;;6088429;28;80521;-64
2022/07/12 11:01:48;;;;;;;2.88;2.00;;;22.70;65.00;;;;;;6092301;28;81476;-65
2022/07/12 11:04:49;;;;;;;9.13;2.70;;;22.80;64.30;;;;;;6104866;28;80196;-64
2022/07/12 11:07:49;;;;;;;10.32;3.60;;;22.90;64.40;;;;;;6111053;28;80510;-64
2022/07/12 11:10:51;;;;;;;5.30;2.90;;;22.90;63.20;;;;;;6109379;28;80331;-70
2022/07/12 11:13:51;;;;;;;11.23;3.45;;;22.80;62.60;;;;;;6117128;28;80319;-68
2022/07/12 11:16:52;;;;;;;6.97;3.38;;;22.80;62.60;;;;;;6112919;28;80644;-62
2022/07/12 11:19:52;;;;;;;16.92;5.05;;;22.90;63.10;;;;;;6111871;28;80550;-63
2022/07/12 11:22:53;;;;;;;7.03;2.78;;;23.00;63.00;;;;;;6111292;28;80774;-65
2022/07/12 11:25:54;;;;;;;8.73;2.65;;;23.00;61.80;;;;;;6104600;28;80184;-64
2022/07/12 11:28:55;;;;;;;6.03;2.38;;;23.00;60.50;;;;;;6104523;28;80567;-66
2022/07/12 11:31:55;;;;;;;4.75;1.52;;;23.00;60.90;;;;;;6099297;28;80507;-62
2022/07/12 11:34:56;;;;;;;4.38;1.70;;;23.00;60.00;;;;;;6089581;28;80579;-63
2022/07/12 11:37:56;;;;;;;3.88;1.63;;;22.90;59.60;;;;;;6099783;28;80883;-62
2022/07/12 11:40:57;;;;;;;5.13;1.50;;;22.90;59.30;;;;;;6096995;28;80042;-63
2022/07/12 11:43:57;;;;;;;4.93;2.58;;;22.80;59.40;;;;;;6090328;28;81266;-63
2022/07/12 11:46:58;;;;;;;2.95;1.83;;;22.90;59.80;;;;;;6098097;28;81323;-63
2022/07/12 11:49:58;;;;;;;3.28;2.10;;;22.90;60.20;;;;;;6095636;28;80113;-64
2022/07/12 11:52:59;;;;;;;2.60;1.60;;;23.00;60.20;;;;;;6094121;28;80570;-65
2022/07/12 11:55:59;;;;;;;3.38;1.13;;;23.00;59.70;;;;;;6095299;28;80683;-64
2022/07/12 11:59:00;;;;;;;4.88;2.30;;;23.00;59.70;;;;;;6101387;28;80284;-65
2022/07/12 12:02:00;;;;;;;3.58;1.95;;;23.00;59.50;;;;;;6092480;28;81407;-65
2022/07/12 12:05:01;;;;;;;5.15;2.17;;;23.00;59.50;;;;;;6091241;28;81564;-65
2022/07/12 12:08:01;;;;;;;1.60;1.17;;;23.00;59.40;;;;;;6096511;28;81609;-63
2022/07/12 12:11:02;;;;;;;5.40;1.90;;;23.00;58.60;;;;;;6088079;28;80485;-64
2022/07/12 12:14:03;;;;;;;2.20;1.27;;;23.00;58.10;;;;;;6110972;28;81736;-65
2022/07/12 12:17:03;;;;;;;3.28;1.75;;;23.10;58.10;;;;;;6111732;28;81231;-69
2022/07/12 12:20:04;;;;;;;2.30;1.58;;;23.10;58.80;;;;;;6095215;28;80430;-77
2022/07/12 12:23:05;;;;;;;6.82;1.63;;;23.10;57.70;;;;;;6104106;28;80326;-72
2022/07/12 12:26:05;;;;;;;12.05;5.13;;;23.10;57.90;;;;;;6096417;28;80215;-74
2022/07/12 12:29:06;;;;;;;16.65;7.35;;;23.10;58.00;;;;;;6105972;28;81180;-71
2022/07/12 12:32:07;;;;;;;6.30;3.15;;;23.20;57.40;;;;;;6113296;28;80735;-75
2022/07/12 12:35:08;;;;;;;4.43;2.05;;;22.90;57.30;;;;;;6114128;28;80501;-73
2022/07/12 12:38:08;;;;;;;4.97;1.80;;;22.70;57.90;;;;;;6112017;28;80648;-74
2022/07/12 12:41:09;;;;;;;6.70;2.63;;;22.70;57.60;;;;;;6110724;28;81485;-76
2022/07/12 12:44:12;;;;;;;8.45;3.67;;;22.70;57.60;;;;;;6118968;28;80177;-71
2022/07/12 12:47:31;;;;;;;22.52;6.28;;;22.70;57.50;;;;;;6117514;28;80479;-74
2022/07/12 12:50:31;;;;;;;11.52;5.53;;;22.80;57.80;;;;;;6116193;28;87875;-72
2022/07/12 12:53:32;;;;;;;9.30;3.95;;;22.90;57.70;;;;;;6108253;28;80889;-76
2022/07/12 12:56:32;;;;;;;13.07;3.17;;;22.90;57.70;;;;;;6126042;28;80991;-67
2022/07/12 12:59:33;;;;;;;7.70;2.25;;;22.80;57.90;;;;;;6122457;28;80609;-66
2022/07/12 13:02:33;;;;;;;5.43;1.60;;;22.90;57.90;;;;;;6111426;28;82027;-63
2022/07/12 13:05:34;;;;;;;6.65;2.35;;;22.90;57.80;;;;;;6110004;28;80683;-64
2022/07/12 13:08:34;;;;;;;6.38;1.45;;;23.00;57.80;;;;;;6103309;28;80289;-64
2022/07/12 13:11:35;;;;;;;5.18;1.73;;;22.90;57.90;;;;;;6111117;28;80758;-64
2022/07/12 13:14:35;;;;;;;3.88;2.13;;;23.00;59.00;;;;;;6103216;28;80465;-64
2022/07/12 13:17:36;;;;;;;16.90;1.60;;;22.90;59.50;;;;;;6112039;28;83250;-65
2022/07/12 13:20:36;;;;;;;3.83;1.30;;;22.90;60.40;;;;;;6115466;28;80547;-75
2022/07/12 13:23:37;;;;;;;3.40;1.35;;;22.80;61.30;;;;;;6117196;28;80846;-67
2022/07/12 13:26:37;;;;;;;11.45;1.38;;;22.90;61.50;;;;;;6121557;28;85300;-73
2022/07/12 13:29:38;;;;;;;4.05;1.65;;;22.90;61.80;;;;;;6121196;28;81768;-65
2022/07/12 13:32:38;;;;;;;4.93;1.20;;;22.90;62.70;;;;;;6113050;28;80479;-65
2022/07/12 13:35:39;;;;;;;14.43;3.35;;;23.00;62.80;;;;;;6113967;28;81252;-64
2022/07/12 13:38:39;;;;;;;4.55;2.10;;;23.00;62.80;;;;;;6110844;28;80604;-66
2022/07/12 13:41:40;;;;;;;3.30;1.55;;;23.00;62.60;;;;;;6118707;28;80223;-65
2022/07/12 13:44:40;;;;;;;3.55;1.30;;;23.00;63.00;;;;;;6110334;28;80356;-64
2022/07/12 13:47:41;;;;;;;2.47;1.58;;;22.90;63.70;;;;;;6113506;28;80535;-65
2022/07/12 13:50:41;;;;;;;3.25;1.60;;;22.80;65.00;;;;;;6106071;28;81445;-64
2022/07/12 13:53:42;;;;;;;8.20;1.88;;;22.80;65.20;;;;;;6101215;28;80909;-67
2022/07/12 13:56:42;;;;;;;2.65;1.38;;;22.80;65.90;;;;;;6114084;28;82976;-65
2022/07/12 13:59:42;;;;;;;3.00;1.20;;;22.90;66.50;;;;;;6100674;28;81858;-65
2022/07/12 14:02:43;;;;;;;2.22;1.20;;;23.00;65.80;;;;;;6101890;28;80764;-64
2022/07/12 14:05:43;;;;;;;1.98;1.27;;;23.00;65.10;;;;;;6101956;28;80486;-65
2022/07/12 14:08:44;;;;;;;3.08;1.10;;;22.80;63.90;;;;;;6101908;28;80616;-64
2022/07/12 14:11:44;;;;;;;3.08;1.33;;;22.70;64.60;;;;;;6110725;28;80323;-64
2022/07/12 14:15:14;;;;;;;6.10;1.58;;;22.80;64.40;;;;;;6106623;28;82037;-64
2022/07/12 14:18:11;;;;;;;1.50;1.10;;;22.80;64.20;;;;;;6109815;28;84513;-66
2022/07/12 14:21:12;;;;;;;5.78;1.63;;;22.90;64.40;;;;;;6106368;28;87419;-67
2022/07/12 14:24:12;;;;;;;1.70;1.15;;;22.90;64.00;;;;;;6097023;28;82770;-65
2022/07/12 14:27:13;;;;;;;1.35;1.02;;;23.00;63.80;;;;;;6113440;28;81056;-63
2022/07/12 14:30:13;;;;;;;2.20;1.30;;;23.00;63.00;;;;;;6116743;28;81666;-63
2022/07/12 14:33:14;;;;;;;3.53;1.30;;;23.00;63.00;;;;;;6115292;28;81504;-64
2022/07/12 14:36:14;;;;;;;3.30;1.10;;;23.10;62.70;;;;;;6118023;28;80326;-64
2022/07/12 14:39:15;;;;;;;2.45;1.48;;;23.00;62.20;;;;;;6099610;28;83354;-63
2022/07/12 14:42:15;;;;;;;1.30;1.00;;;23.00;62.00;;;;;;6100670;28;80530;-63
2022/07/12 14:45:16;;;;;;;2.60;1.25;;;23.10;61.30;;;;;;6098695;28;80471;-64
2022/07/12 14:48:16;;;;;;;3.08;1.52;;;23.10;60.90;;;;;;6101449;28;81024;-60
2022/07/12 14:51:17;;;;;;;2.03;1.20;;;23.20;60.70;;;;;;6093861;28;81422;-63
2022/07/12 14:54:17;;;;;;;3.88;1.48;;;23.20;60.70;;;;;;6094893;28;81404;-63
2022/07/12 14:57:18;;;;;;;2.63;1.10;;;23.20;60.90;;;;;;6107143;28;85426;-64
2022/07/12 15:00:20;;;;;;;1.42;1.00;;;23.30;61.40;;;;;;6104141;28;81046;-63
2022/07/12 15:03:20;;;;;;;2.22;0.98;;;23.30;62.00;;;;;;6105295;28;81557;-64
2022/07/12 15:06:22;;;;;;;2.70;1.50;;;23.40;61.40;;;;;;6106775;28;81410;-63
2022/07/12 15:09:22;;;;;;;2.00;1.15;;;23.40;61.50;;;;;;6109949;28;80811;-64
2022/07/12 15:12:23;;;;;;;1.30;1.13;;;23.40;61.60;;;;;;6110574;28;80802;-62
2022/07/12 15:15:23;;;;;;;2.08;1.23;;;23.40;61.90;;;;;;6106354;28;80882;-62
2022/07/12 15:18:24;;;;;;;1.73;1.30;;;23.40;62.20;;;;;;6111803;28;80379;-63
2022/07/12 15:21:24;;;;;;;7.75;1.60;;;23.40;62.80;;;;;;6110947;28;80356;-63
2022/07/12 15:24:25;;;;;;;4.28;1.40;;;23.40;64.50;;;;;;6110811;28;80733;-65
2022/07/12 15:27:27;;;;;;;5.95;1.48;;;23.30;62.80;;;;;;6108002;28;81286;-61
2022/07/12 15:30:27;;;;;;;1.77;1.65;;;23.40;64.10;;;;;;6118726;28;84269;-65
2022/07/12 15:33:28;;;;;;;3.67;1.30;;;23.40;65.20;;;;;;6111673;28;80772;-64
2022/07/12 15:36:28;;;;;;;2.70;1.35;;;23.50;63.40;;;;;;6108996;28;80429;-64
2022/07/12 15:39:29;;;;;;;4.90;1.65;;;23.50;62.70;;;;;;6107873;28;81266;-64
2022/07/12 15:42:29;;;;;;;7.07;2.03;;;23.50;62.40;;;;;;6098083;28;80006;-65
2022/07/12 15:45:30;;;;;;;5.15;1.60;;;23.50;62.20;;;;;;6107870;28;80931;-63